首页
METAR-TAF:

METAR-TAF

机场 :

凱恩斯國際機場

凱恩斯, 澳大利亚

纬度: 16-53S, 经度: 145-45E, 海拔: 3米

当前天气观测

该预报发布于42分钟前的01:00 UTC
风速11节,风向
温度 25°C
湿度 61%
气压 1017 hPa
能见度10公里或以上
少量云层高于4800英尺

METAR: YBCS 200100Z AUTO 17011KT 9999 // FEW048 25/17 Q1017 RF00.0/000.0

时间: 11:42 (01:42 UTC)

预报

该预报发布于2小时和25分钟前的23:17 UTC
预报有效从20日的 00点(UTC)到 21日的 00点(UTC)
风速12节,风向南转南东
能见度10公里或以上
散云层高于3500英尺
从 20日的 1000点(UTC)
风速8节,风向
能见度10公里或以上
散云层高于2500英尺

TAF: YBCS 192317Z 2000/2100 15012KT 9999 SCT035 FM201000 18008KT 9999 SCT025

超过4000个机场的气象观测和天气预报(METAR&TAF报告)。

可查询的气象台以黄色和红色小点在地图上表示。

将鼠标移到小点上方,可查看气象台名称。

然后点击查看天气观测和预报。

如需切换地图:点击带黑十字的绿色按钮放大地图;点击带横线的绿色按钮缩小地图;或者点击绿色箭头查看邻近地区的地图。


METAR-TAF: